Time;durP1;ratioP1;P1;durP2;ratioP2;P2;SDS_P1;SDS_P2;PMS_P1;PMS_P2;Temp;Humidity;BMP_temperature;BMP_pressure;BME280_temperature;BME280_humidity;BME280_pressure;Samples;Min_cycle;Max_cycle;Signal;HPM_P1;HPM_P2
2023/02/18 00:00:36;;;;;;;2.90;2.08;;;;;;;7.61;100.00;93968.91;2098483;28;20033;-75
2023/02/18 00:01:38;;;;;;;2.35;1.88;;;;;;;7.67;100.00;93964.72;2114835;27;20035;-73
2023/02/18 00:02:40;;;;;;;3.08;2.13;;;;;;;7.55;100.00;93959.75;2118091;27;20047;-74
2023/02/18 00:03:46;;;;;;;2.40;1.70;;;;;;;7.42;100.00;93966.53;2118411;27;20045;-74
2023/02/18 00:04:47;;;;;;;2.50;1.80;;;;;;;7.64;100.00;93956.72;2117396;27;20039;-74
2023/02/18 00:05:50;;;;;;;5.70;2.20;;;;;;;7.60;100.00;93962.06;2120127;27;20144;-75
2023/02/18 00:06:52;;;;;;;2.60;2.10;;;;;;;7.37;100.00;93962.34;2120400;27;20462;-75
2023/02/18 00:07:54;;;;;;;3.17;2.00;;;;;;;7.48;100.00;93975.69;2119956;27;20035;-74
2023/02/18 00:09:00;;;;;;;3.20;2.10;;;;;;;7.51;100.00;93962.41;2117967;27;20035;-74
2023/02/18 00:10:03;;;;;;;3.63;2.17;;;;;;;7.56;100.00;93967.38;2119198;27;20031;-73
2023/02/18 00:11:05;;;;;;;4.75;2.80;;;;;;;7.70;100.00;93961.31;2113856;27;20757;-75
2023/02/18 00:12:06;;;;;;;4.05;1.83;;;;;;;7.71;100.00;93954.84;2117169;27;20044;-74
2023/02/18 00:13:07;;;;;;;2.33;2.00;;;;;;;7.62;100.00;93946.47;2116673;27;20035;-75
2023/02/18 00:14:12;;;;;;;2.63;2.00;;;;;;;7.65;100.00;93956.38;2119672;27;20031;-75
2023/02/18 00:15:13;;;;;;;2.45;1.95;;;;;;;7.72;100.00;93958.28;2120526;27;20162;-75
2023/02/18 00:16:14;;;;;;;4.28;2.17;;;;;;;7.66;100.00;93951.81;2120548;27;20049;-74
2023/02/18 00:17:15;;;;;;;2.35;2.10;;;;;;;7.63;100.00;93955.22;2119348;27;20038;-74
2023/02/18 00:18:16;;;;;;;3.30;2.22;;;;;;;7.58;100.00;93946.44;2116783;27;20030;-74
2023/02/18 00:19:19;;;;;;;2.83;1.90;;;;;;;7.54;100.00;93955.56;2116648;27;20039;-74
2023/02/18 00:20:20;;;;;;;2.17;1.80;;;;;;;7.46;100.00;93954.81;2116414;27;20043;-74
2023/02/18 00:21:22;;;;;;;2.92;1.85;;;;;;;7.20;100.00;93947.06;2116348;27;20527;-75
2023/02/18 00:22:23;;;;;;;2.70;1.80;;;;;;;7.21;100.00;93945.94;2116278;27;20027;-75
2023/02/18 00:23:25;;;;;;;1.83;1.60;;;;;;;7.08;100.00;93945.50;2120411;27;20046;-74
2023/02/18 00:24:26;;;;;;;2.45;1.90;;;;;;;7.17;100.00;93943.28;2114910;27;20576;-75
2023/02/18 00:25:28;;;;;;;2.72;1.90;;;;;;;7.27;100.00;93939.88;2116538;27;20023;-75
2023/02/18 00:26:29;;;;;;;2.03;1.75;;;;;;;7.19;100.00;93937.56;2119798;27;20026;-74
2023/02/18 00:27:31;;;;;;;2.13;1.85;;;;;;;7.22;100.00;93945.56;2115903;27;20031;-75
2023/02/18 00:28:33;;;;;;;3.70;1.77;;;;;;;7.44;100.00;93949.06;2117146;27;20043;-75
2023/02/18 00:29:34;;;;;;;3.33;1.85;;;;;;;7.28;100.00;93951.28;2117995;27;20038;-74
2023/02/18 00:30:40;;;;;;;2.97;2.03;;;;;;;7.40;100.00;93942.97;2117556;27;20031;-74
2023/02/18 00:31:41;;;;;;;2.88;1.73;;;;;;;7.46;100.00;93946.03;2117583;27;20035;-74
2023/02/18 00:32:42;;;;;;;2.90;1.73;;;;;;;7.33;100.00;93948.25;2117945;27;20114;-74
2023/02/18 00:33:43;;;;;;;3.75;2.00;;;;;;;7.16;100.00;93939.09;2116924;27;20077;-75
2023/02/18 00:34:44;;;;;;;2.70;1.80;;;;;;;7.16;100.00;93947.06;2116898;27;20448;-74
2023/02/18 00:35:45;;;;;;;3.58;1.92;;;;;;;7.12;100.00;93940.22;2118795;27;20042;-76
2023/02/18 00:36:46;;;;;;;2.40;1.80;;;;;;;7.19;100.00;93943.66;2118948;27;20461;-75
2023/02/18 00:37:50;;;;;;;1.90;1.70;;;;;;;7.06;100.00;93945.88;2118547;27;20031;-74
2023/02/18 00:38:57;;;;;;;2.15;1.70;;;;;;;6.97;100.00;93934.81;2116678;27;20085;-75
2023/02/18 00:39:58;;;;;;;2.50;1.98;;;;;;;7.02;100.00;93939.78;2117070;27;20034;-75
2023/02/18 00:41:00;;;;;;;3.85;1.92;;;;;;;6.97;100.00;93936.72;2120002;27;20450;-75
2023/02/18 00:42:01;;;;;;;2.50;1.85;;;;;;;7.14;100.00;93936.03;2118621;27;20411;-74
2023/02/18 00:43:02;;;;;;;2.03;1.50;;;;;;;7.03;100.00;93943.97;2118600;27;20055;-75
2023/02/18 00:44:04;;;;;;;1.80;1.50;;;;;;;6.87;100.00;93927.56;2117983;27;20031;-74
2023/02/18 00:45:05;;;;;;;3.85;1.67;;;;;;;6.92;100.00;93932.50;2118079;27;20155;-74
2023/02/18 00:46:07;;;;;;;3.45;1.83;;;;;;;7.10;100.00;93924.63;2119608;27;20127;-75
2023/02/18 00:47:08;;;;;;;4.50;1.70;;;;;;;6.93;100.00;93931.38;2119676;27;20477;-75
2023/02/18 00:48:10;;;;;;;3.40;1.60;;;;;;;6.86;100.00;93935.91;2110616;28;20028;-75
2023/02/18 00:49:11;;;;;;;1.98;1.50;;;;;;;6.71;100.00;93925.16;2109118;27;20434;-75
2023/02/18 00:50:12;;;;;;;3.35;1.63;;;;;;;6.94;100.00;93924.19;2118532;27;20034;-75
2023/02/18 00:51:14;;;;;;;2.05;1.65;;;;;;;6.85;100.00;93934.34;2117355;27;20032;-74
2023/02/18 00:52:16;;;;;;;2.88;1.60;;;;;;;6.87;100.00;93932.88;2112268;28;20042;-79
2023/02/18 00:53:18;;;;;;;2.03;1.50;;;;;;;6.85;100.00;93929.84;2111536;28;20244;-75
2023/02/18 00:54:19;;;;;;;2.03;1.52;;;;;;;7.20;100.00;93923.91;2112089;28;20038;-75
2023/02/18 00:55:20;;;;;;;2.05;1.50;;;;;;;7.20;100.00;93918.59;2115010;27;20035;-75
2023/02/18 00:56:21;;;;;;;2.00;1.30;;;;;;;7.08;100.00;93924.25;2116083;27;20027;-75
2023/02/18 00:57:23;;;;;;;1.65;1.35;;;;;;;7.22;100.00;93921.63;2118172;27;20039;-75
2023/02/18 00:58:24;;;;;;;2.47;1.33;;;;;;;7.16;100.00;93930.38;2115309;27;20040;-74
2023/02/18 00:59:25;;;;;;;4.30;1.40;;;;;;;6.89;100.00;93917.31;2118149;27;20046;-74
2023/02/18 01:00:26;;;;;;;1.75;1.50;;;;;;;6.96;100.00;93922.66;2116403;27;20059;-74
2023/02/18 01:01:28;;;;;;;4.57;1.40;;;;;;;7.13;100.00;93923.88;2118173;27;20899;-75
2023/02/18 01:02:30;;;;;;;2.25;1.33;;;;;;;7.15;100.00;93926.16;2120308;27;20049;-74
2023/02/18 01:03:32;;;;;;;1.70;1.25;;;;;;;7.07;100.00;93925.38;2117872;27;20032;-74
2023/02/18 01:04:34;;;;;;;3.60;1.20;;;;;;;6.95;100.00;93925.69;2116874;27;20056;-75
2023/02/18 01:05:37;;;;;;;1.65;1.30;;;;;;;6.86;100.00;93920.72;2116849;27;20038;-74
2023/02/18 01:06:38;;;;;;;2.05;1.33;;;;;;;6.75;100.00;93920.63;2116842;27;20405;-74
2023/02/18 01:07:39;;;;;;;3.03;1.02;;;;;;;6.66;100.00;93932.75;2115939;27;20027;-74
2023/02/18 01:08:41;;;;;;;1.98;1.10;;;;;;;6.65;100.00;93909.97;2116976;27;20110;-74
2023/02/18 01:09:43;;;;;;;2.45;1.42;;;;;;;6.77;100.00;93925.59;2120499;27;20035;-74
2023/02/18 01:10:46;;;;;;;1.48;1.20;;;;;;;6.71;100.00;93914.53;2117623;27;20038;-73
2023/02/18 01:11:48;;;;;;;2.17;1.40;;;;;;;6.59;100.00;93920.19;2117248;27;20027;-74
2023/02/18 01:12:49;;;;;;;2.75;1.50;;;;;;;6.80;100.00;93912.34;2118361;27;20055;-75
2023/02/18 01:13:50;;;;;;;1.85;1.30;;;;;;;7.15;100.00;93921.59;2119627;27;20059;-74
2023/02/18 01:14:51;;;;;;;1.25;1.20;;;;;;;7.18;100.00;93915.53;2115595;27;20024;-75
2023/02/18 01:15:52;;;;;;;1.38;1.27;;;;;;;7.03;100.00;93913.97;2115215;27;20038;-75
2023/02/18 01:16:56;;;;;;;4.78;1.25;;;;;;;6.90;100.00;93918.84;2118431;27;20031;-75
2023/02/18 01:17:57;;;;;;;1.70;1.60;;;;;;;6.78;100.00;93916.50;2115814;27;20052;-75
2023/02/18 01:18:59;;;;;;;2.13;1.20;;;;;;;6.69;100.00;93916.06;2106689;28;20119;-76
2023/02/18 01:20:00;;;;;;;2.00;1.20;;;;;;;6.70;100.00;93907.72;2103455;28;20044;-75
2023/02/18 01:21:04;;;;;;;1.27;1.17;;;;;;;6.54;100.00;93912.53;2119108;27;20031;-75
2023/02/18 01:22:05;;;;;;;2.28;1.40;;;;;;;6.56;100.00;93905.75;2115397;27;20035;-73
2023/02/18 01:23:07;;;;;;;2.08;1.35;;;;;;;6.50;100.00;93909.88;2119931;27;20023;-74
2023/02/18 01:24:08;;;;;;;1.40;1.25;;;;;;;6.53;100.00;93903.06;2118609;27;20032;-75
2023/02/18 01:25:10;;;;;;;2.95;1.13;;;;;;;6.49;100.00;93899.63;2116799;27;20429;-74
2023/02/18 01:26:12;;;;;;;1.45;1.00;;;;;;;6.48;100.00;93903.41;2118487;27;20050;-75
2023/02/18 01:27:14;;;;;;;1.23;1.10;;;;;;;6.55;100.00;93904.22;2117614;27;20444;-75
2023/02/18 01:28:17;;;;;;;3.28;1.10;;;;;;;6.73;100.00;93908.88;2120375;27;20039;-75
2023/02/18 01:29:18;;;;;;;1.23;1.13;;;;;;;6.60;100.00;93908.41;2119725;27;20712;-75
2023/02/18 01:30:19;;;;;;;1.10;1.00;;;;;;;6.71;100.00;93906.56;2119832;27;20031;-75
2023/02/18 01:31:22;;;;;;;3.25;1.20;;;;;;;6.59;100.00;93901.59;2115687;27;20207;-75
2023/02/18 01:32:23;;;;;;;1.27;1.05;;;;;;;6.65;100.00;93905.41;2119440;27;20102;-75
2023/02/18 01:33:24;;;;;;;2.78;1.02;;;;;;;6.62;100.00;93908.81;2114916;27;20039;-74
2023/02/18 01:34:26;;;;;;;1.00;0.90;;;;;;;6.59;100.00;93906.16;2112112;27;20043;-74
2023/02/18 01:35:28;;;;;;;1.75;1.10;;;;;;;6.56;100.00;93905.75;2117561;27;20023;-74
2023/02/18 01:36:30;;;;;;;1.25;0.93;;;;;;;6.59;100.00;93901.59;2118559;27;20039;-74
2023/02/18 01:37:34;;;;;;;0.80;0.80;;;;;;;6.54;100.00;93908.00;2114917;27;20043;-74
2023/02/18 01:38:35;;;;;;;1.13;0.90;;;;;;;6.52;100.00;93896.97;2115381;27;20485;-76
2023/02/18 01:39:36;;;;;;;3.33;1.08;;;;;;;6.53;100.00;93895.84;2115363;27;20097;-75
2023/02/18 01:40:46;;;;;;;1.88;1.00;;;;;;;6.45;100.00;93909.44;2115198;27;20027;-75
2023/02/18 01:41:47;;;;;;;1.92;1.30;;;;;;;6.50;100.00;93893.19;2115729;27;20034;-76
2023/02/18 01:42:49;;;;;;;1.15;1.05;;;;;;;6.58;100.00;93889.41;2118139;27;20035;-76
2023/02/18 01:44:20;;;;;;;1.08;0.95;;;;;;;6.93;100.00;93899.47;2116466;27;20463;-74
2023/02/18 01:45:36;;;;;;;1.33;0.80;;;;;;;7.07;100.00;93899.56;2115256;27;20027;-76
2023/02/18 01:46:38;;;;;;;1.20;1.10;;;;;;;6.98;100.00;93896.50;2116989;27;20118;-75
2023/02/18 01:47:39;;;;;;;1.10;0.90;;;;;;;6.95;100.00;93899.88;2115723;27;20043;-75
2023/02/18 01:48:56;;;;;;;0.98;0.88;;;;;;;6.84;100.00;93900.94;2115398;27;20051;-74
2023/02/18 01:49:57;;;;;;;1.30;0.98;;;;;;;6.79;100.00;93896.75;2115384;27;20027;-75
2023/02/18 01:51:20;;;;;;;1.05;0.82;;;;;;;6.96;100.00;93890.75;2115425;27;20040;-74
2023/02/18 01:52:25;;;;;;;1.85;0.80;;;;;;;6.89;100.00;93895.28;2115514;27;20141;-75
2023/02/18 01:53:36;;;;;;;1.60;1.38;;;;;;;6.84;100.00;93895.63;2115565;27;20031;-75
2023/02/18 01:54:40;;;;;;;1.30;0.90;;;;;;;6.81;100.00;93886.53;2117146;27;20035;-75
2023/02/18 01:55:41;;;;;;;0.90;0.80;;;;;;;6.88;100.00;93885.78;2118854;27;20099;-75
2023/02/18 01:56:51;;;;;;;4.15;1.20;;;;;;;6.77;100.00;93891.06;2117472;27;20034;-75
2023/02/18 01:57:53;;;;;;;;;;;;;;;6.66;100.00;93888.34;2116004;27;20031;-73
2023/02/18 01:58:58;;;;;;;1.38;0.90;;;;;;;6.66;100.00;93883.03;2115302;27;19938;-74
2023/02/18 02:00:10;;;;;;;0.88;0.88;;;;;;;6.61;100.00;93885.28;2115635;27;20031;-74
2023/02/18 02:01:11;;;;;;;1.55;0.90;;;;;;;6.61;100.00;93882.63;2118907;27;20047;-74
2023/02/18 02:02:16;;;;;;;0.85;0.73;;;;;;;6.61;100.00;93886.03;2121089;27;20035;-74
2023/02/18 02:03:17;;;;;;;1.20;0.90;;;;;;;6.56;100.00;93878.41;2120450;27;20039;-74
2023/02/18 02:04:19;;;;;;;1.98;1.08;;;;;;;6.50;100.00;93885.97;2114449;27;20027;-74
2023/02/18 02:05:21;;;;;;;0.80;0.80;;;;;;;6.65;100.00;93889.47;2113059;28;20034;-74
2023/02/18 02:06:23;;;;;;;1.00;0.90;;;;;;;6.77;100.00;93885.75;2119957;27;20039;-74
2023/02/18 02:07:27;;;;;;;0.98;0.85;;;;;;;6.79;100.00;93886.13;2113891;27;20115;-74
2023/02/18 02:08:28;;;;;;;1.73;1.05;;;;;;;6.79;100.00;93880.81;2115669;27;20027;-74
2023/02/18 02:09:33;;;;;;;0.75;0.75;;;;;;;6.71;100.00;93887.22;2117941;27;20739;-74
2023/02/18 02:11:13;;;;;;;1.15;0.70;;;;;;;6.64;100.00;93881.88;2115954;27;20036;-75
2023/02/18 02:12:49;;;;;;;2.72;0.90;;;;;;;6.45;100.00;93881.03;2083542;28;20117;-75
2023/02/18 02:14:35;;;;;;;1.00;0.90;;;;;;;6.48;100.00;93885.56;2114905;27;20039;-74
2023/02/18 02:15:57;;;;;;;0.75;0.75;;;;;;;6.33;100.00;93873.34;2084480;28;20133;-74
2023/02/18 02:19:25;;;;;;;;;;;;;;;6.22;100.00;93883.88;2127191;27;20627;-75
2023/02/18 02:20:41;;;;;;;0.68;0.68;;;;;;;6.41;100.00;93880.25;2124818;27;19919;-75
2023/02/18 02:22:05;;;;;;;0.73;0.73;;;;;;;6.56;100.00;93876.53;2115834;27;20050;-75
2023/02/18 02:23:41;;;;;;;1.25;0.80;;;;;;;6.61;100.00;93872.00;2115183;27;20453;-76
2023/02/18 02:25:22;;;;;;;1.33;0.80;;;;;;;6.90;100.00;93880.88;2112366;27;20163;-75
2023/02/18 02:26:50;;;;;;;1.42;0.80;;;;;;;6.98;100.00;93874.44;2114797;27;20039;-75
2023/02/18 02:28:10;;;;;;;2.10;0.70;;;;;;;6.98;100.00;93885.84;2115228;27;20038;-75
2023/02/18 02:29:44;;;;;;;0.98;0.80;;;;;;;6.83;100.00;93876.28;2115901;27;20389;-75
2023/02/18 02:31:41;;;;;;;0.98;0.88;;;;;;;6.92;100.00;93874.03;2111980;27;20086;-75
2023/02/18 02:33:18;;;;;;;0.80;0.70;;;;;;;7.04;100.00;93868.41;2088582;28;20044;-74
2023/02/18 02:34:44;;;;;;;1.63;0.70;;;;;;;7.06;100.00;93870.69;2089756;28;20895;-75
2023/02/18 02:36:08;;;;;;;4.63;0.90;;;;;;;7.47;100.00;93873.84;2089041;28;20124;-75
2023/02/18 02:37:24;;;;;;;0.73;0.73;;;;;;;7.24;100.00;93871.53;2089875;28;20175;-76
2023/02/18 02:38:53;;;;;;;1.10;0.77;;;;;;;7.36;100.00;93875.72;2103314;27;20043;-75
2023/02/18 02:40:23;;;;;;;0.80;0.80;;;;;;;7.47;100.00;93873.84;2121929;27;20035;-75
2023/02/18 02:41:33;;;;;;;;;;;;;;;7.29;100.00;93873.81;2124530;27;20041;-73
2023/02/18 02:42:45;;;;;;;1.02;0.93;;;;;;;7.19;100.00;93871.09;2117133;27;19916;-75
2023/02/18 02:44:00;;;;;;;0.93;0.70;;;;;;;7.06;100.00;93878.66;2110947;27;20040;-75
2023/02/18 02:45:37;;;;;;;1.13;0.85;;;;;;;6.97;100.00;93879.00;2114460;27;20077;-76
2023/02/18 02:46:43;;;;;;;1.08;0.70;;;;;;;6.87;100.00;93877.06;2114752;27;20107;-76
2023/02/18 02:48:13;;;;;;;1.10;1.00;;;;;;;7.23;100.00;93877.19;2118460;27;20046;-77
2023/02/18 02:49:38;;;;;;;1.23;1.00;;;;;;;7.26;100.00;93873.78;2089414;28;20132;-76
2023/02/18 02:50:50;;;;;;;1.20;0.70;;;;;;;7.29;100.00;93870.41;2114361;27;20032;-75
2023/02/18 02:52:03;;;;;;;3.47;0.80;;;;;;;7.33;100.00;93873.78;2114922;27;20035;-76
2023/02/18 02:53:21;;;;;;;1.88;0.90;;;;;;;7.18;100.00;93866.94;2120823;27;20031;-76
2023/02/18 02:54:26;;;;;;;1.02;0.80;;;;;;;7.33;100.00;93865.81;2117460;27;20027;-76
2023/02/18 02:55:27;;;;;;;1.20;0.88;;;;;;;7.05;100.00;93869.16;2115955;27;20122;-76
2023/02/18 02:56:28;;;;;;;1.20;0.95;;;;;;;6.96;100.00;93866.09;2114942;27;20576;-76
2023/02/18 02:57:29;;;;;;;2.08;1.00;;;;;;;7.02;100.00;93865.38;2119644;27;20398;-76
2023/02/18 02:58:30;;;;;;;1.15;0.90;;;;;;;7.26;100.00;93868.47;2120132;27;20083;-76
2023/02/18 02:59:34;;;;;;;1.95;0.98;;;;;;;7.51;100.00;93869.31;2122041;27;20039;-76
2023/02/18 03:00:49;;;;;;;3.20;1.05;;;;;;;7.36;100.00;93873.06;2120882;27;20055;-75
2023/02/18 03:02:17;;;;;;;1.25;1.10;;;;;;;7.27;100.00;93872.66;2121497;27;20035;-77
2023/02/18 03:03:42;;;;;;;1.92;0.90;;;;;;;7.10;100.00;93863.47;2113949;27;20034;-76
2023/02/18 03:05:07;;;;;;;0.82;0.80;;;;;;;7.20;100.00;93869.97;2120576;27;20040;-75
2023/02/18 03:06:37;;;;;;;1.27;0.90;;;;;;;7.18;100.00;93865.03;2115253;27;20032;-75
2023/02/18 03:08:05;;;;;;;1.67;1.02;;;;;;;6.99;100.00;93873.31;2120509;27;20031;-75
2023/02/18 03:09:20;;;;;;;2.67;0.90;;;;;;;7.23;100.00;93856.69;2116399;27;20031;-74
2023/02/18 03:10:45;;;;;;;1.73;1.08;;;;;;;7.36;100.00;93861.66;2120574;27;20027;-77
2023/02/18 03:12:21;;;;;;;1.80;0.95;;;;;;;7.64;100.00;93858.28;2107558;28;20038;-75
2023/02/18 03:13:52;;;;;;;2.90;1.00;;;;;;;7.57;100.00;93859.81;2093732;28;20048;-76
2023/02/18 03:15:06;;;;;;;1.13;0.85;;;;;;;7.48;100.00;93864.72;2114539;27;20025;-75
2023/02/18 03:16:26;;;;;;;1.40;1.00;;;;;;;7.49;100.00;93852.94;2118831;27;20786;-75
2023/02/18 03:17:34;;;;;;;;;;;;;;;7.44;100.00;93849.91;2110868;27;20036;-75
2023/02/18 03:18:47;;;;;;;1.63;1.10;;;;;;;7.52;100.00;93854.09;2117062;27;19925;-75
2023/02/18 03:20:08;;;;;;;2.72;1.58;;;;;;;7.48;100.00;93846.09;2129764;27;20049;-75
2023/02/18 03:21:25;;;;;;;2.38;1.17;;;;;;;7.61;100.00;93848.41;2127582;27;20045;-76
2023/02/18 03:22:35;;;;;;;1.77;1.10;;;;;;;7.85;100.00;93852.22;2125360;27;20030;-77
2023/02/18 03:23:51;;;;;;;2.10;1.52;;;;;;;7.78;100.00;93853.00;2127331;27;20102;-74
2023/02/18 03:24:56;;;;;;;2.58;1.10;;;;;;;7.64;100.00;93859.06;2132194;27;20071;-75
2023/02/18 03:25:58;;;;;;;1.25;1.00;;;;;;;7.68;100.00;93867.03;2125431;27;20468;-76
2023/02/18 03:27:22;;;;;;;6.75;1.52;;;;;;;7.74;100.00;93854.91;2130261;27;20422;-76
2023/02/18 03:28:30;;;;;;;1.48;1.00;;;;;;;7.82;100.00;93857.19;2091368;28;20122;-76
2023/02/18 03:29:33;;;;;;;1.27;1.00;;;;;;;7.70;100.00;93849.56;2124655;27;20465;-76
2023/02/18 03:30:51;;;;;;;2.05;1.00;;;;;;;7.55;100.00;93850.66;2114560;27;20496;-76
2023/02/18 03:31:58;;;;;;;1.13;1.02;;;;;;;7.75;100.00;93851.09;2123058;27;20031;-76
2023/02/18 03:33:06;;;;;;;2.45;1.02;;;;;;;7.78;100.00;93853.75;2120301;27;20023;-75
2023/02/18 03:34:15;;;;;;;2.17;1.10;;;;;;;7.84;100.00;93854.13;2121094;27;20080;-75
2023/02/18 03:35:18;;;;;;;1.92;1.00;;;;;;;7.71;100.00;93850.31;2121474;27;20180;-75
2023/02/18 03:36:22;;;;;;;0.90;0.80;;;;;;;7.50;100.00;93851.81;2106826;27;20041;-75
2023/02/18 03:37:23;;;;;;;1.30;1.20;;;;;;;7.47;100.00;93857.91;2114157;27;20035;-76
2023/02/18 03:38:52;;;;;;;2.95;1.10;;;;;;;7.63;100.00;93854.88;2106740;27;20107;-77
2023/02/18 03:39:59;;;;;;;2.15;1.05;;;;;;;7.48;100.00;93848.78;2114053;27;20038;-76
2023/02/18 03:41:00;;;;;;;3.00;1.08;;;;;;;7.33;100.00;93849.88;2119386;27;21011;-76
2023/02/18 03:42:01;;;;;;;2.45;1.75;;;;;;;7.29;100.00;93846.47;2123604;27;20038;-75
2023/02/18 03:43:03;;;;;;;1.17;1.08;;;;;;;7.36;100.00;93840.38;2114215;27;20027;-77
2023/02/18 03:44:09;;;;;;;1.48;1.30;;;;;;;7.56;100.00;93849.56;2115284;27;20048;-75
2023/02/18 03:45:10;;;;;;;2.85;1.35;;;;;;;7.50;100.00;93845.72;2120914;27;20053;-75
2023/02/18 03:46:11;;;;;;;1.30;1.20;;;;;;;7.39;100.00;93839.63;2109542;27;20027;-76
2023/02/18 03:47:12;;;;;;;1.20;1.10;;;;;;;7.29;100.00;93841.16;2116014;27;20035;-76
2023/02/18 03:48:13;;;;;;;1.63;1.20;;;;;;;7.29;100.00;93849.88;2113047;27;20086;-75
2023/02/18 03:49:15;;;;;;;2.30;1.23;;;;;;;7.08;100.00;93833.88;2116889;27;20059;-74
2023/02/18 03:50:16;;;;;;;1.67;1.33;;;;;;;6.90;100.00;93849.00;2121689;27;20127;-74
2023/02/18 03:51:18;;;;;;;1.88;1.17;;;;;;;6.90;100.00;93849.75;2122409;27;20023;-75
2023/02/18 03:52:19;;;;;;;1.35;1.20;;;;;;;6.82;100.00;93842.88;2125019;27;20118;-76
2023/02/18 03:53:20;;;;;;;3.58;1.30;;;;;;;6.82;100.00;93848.94;2121288;27;20023;-75
2023/02/18 03:54:22;;;;;;;1.30;1.10;;;;;;;6.83;100.00;93844.41;2118529;27;20035;-75
2023/02/18 03:55:24;;;;;;;1.30;1.10;;;;;;;6.77;100.00;93837.94;2121142;27;20037;-75
2023/02/18 03:56:25;;;;;;;1.20;1.10;;;;;;;6.75;100.00;93848.16;2110011;27;20036;-75
2023/02/18 03:57:26;;;;;;;2.67;1.40;;;;;;;7.11;100.00;93835.75;2107755;27;20513;-75
2023/02/18 03:58:27;;;;;;;1.38;1.08;;;;;;;7.11;100.00;93840.31;2109450;27;20027;-76
2023/02/18 03:59:28;;;;;;;1.42;1.27;;;;;;;7.30;100.00;93837.34;2108909;27;20044;-75
2023/02/18 04:00:30;;;;;;;1.52;1.20;;;;;;;7.23;100.00;93834.66;2115380;27;20370;-74
2023/02/18 04:01:31;;;;;;;2.05;1.50;;;;;;;7.29;100.00;93823.28;2100851;28;20037;-74
2023/02/18 04:02:32;;;;;;;1.75;1.27;;;;;;;7.47;100.00;93827.88;2117436;27;20030;-75
2023/02/18 04:03:34;;;;;;;2.40;1.52;;;;;;;7.28;100.00;93834.28;2110266;27;20036;-76
2023/02/18 04:04:35;;;;;;;2.42;1.33;;;;;;;7.16;100.00;93835.41;2101768;28;20021;-76
2023/02/18 04:05:36;;;;;;;1.92;1.25;;;;;;;6.96;100.00;93826.22;2101206;28;20042;-75
2023/02/18 04:06:37;;;;;;;1.92;1.30;;;;;;;7.05;100.00;93829.28;2113302;27;20034;-76
2023/02/18 04:07:38;;;;;;;1.45;1.35;;;;;;;7.14;100.00;93823.63;2122732;27;20042;-74
2023/02/18 04:08:39;;;;;;;2.35;1.40;;;;;;;7.03;100.00;93835.00;2124392;27;20062;-75
2023/02/18 04:09:40;;;;;;;1.95;1.65;;;;;;;7.22;100.00;93833.91;2118874;27;20047;-74
2023/02/18 04:10:41;;;;;;;1.73;1.45;;;;;;;7.61;100.00;93822.56;2119939;27;20099;-75
2023/02/18 04:11:43;;;;;;;4.18;1.75;;;;;;;7.57;100.00;93827.13;2114064;27;20537;-75
2023/02/18 04:12:44;;;;;;;1.95;1.50;;;;;;;7.38;100.00;93822.16;2109667;28;20082;-76
2023/02/18 04:13:45;;;;;;;2.95;1.42;;;;;;;7.34;100.00;93832.78;2114197;27;20039;-74
2023/02/18 04:14:46;;;;;;;2.20;1.42;;;;;;;7.22;100.00;93825.16;2109906;27;20066;-77
2023/02/18 04:15:49;;;;;;;2.28;1.40;;;;;;;7.21;100.00;93823.66;2112751;27;20057;-75
2023/02/18 04:16:50;;;;;;;1.70;1.40;;;;;;;7.15;100.00;93827.78;2122565;27;20090;-75
2023/02/18 04:17:51;;;;;;;2.70;1.40;;;;;;;7.06;100.00;93828.16;2123213;27;20030;-75
2023/02/18 04:18:52;;;;;;;1.80;1.50;;;;;;;6.98;100.00;93826.59;2122903;27;20051;-75
2023/02/18 04:19:53;;;;;;;2.17;1.50;;;;;;;7.34;100.00;93826.72;2122822;27;20038;-75
2023/02/18 04:20:54;;;;;;;1.90;1.20;;;;;;;7.66;100.00;93819.53;2125160;27;20049;-75
2023/02/18 04:21:55;;;;;;;3.53;1.48;;;;;;;7.57;100.00;93816.47;2114289;27;20038;-75
2023/02/18 04:22:56;;;;;;;1.48;1.27;;;;;;;7.56;100.00;93812.31;2104618;28;20070;-74
2023/02/18 04:23:57;;;;;;;1.55;1.40;;;;;;;7.70;100.00;93822.19;2107502;27;20062;-75
2023/02/18 04:24:59;;;;;;;1.50;1.25;;;;;;;7.49;100.00;93814.94;2113051;27;20027;-75
2023/02/18 04:26:00;;;;;;;2.40;1.63;;;;;;;7.55;100.00;93814.22;2124311;27;20042;-75
2023/02/18 04:27:01;;;;;;;2.47;1.60;;;;;;;7.58;100.00;93821.41;2113914;27;20035;-75
2023/02/18 04:28:03;;;;;;;3.50;1.17;;;;;;;7.61;100.00;93813.84;2106267;27;20453;-74
2023/02/18 04:29:04;;;;;;;1.60;1.40;;;;;;;7.85;100.00;93813.06;2119133;27;20034;-76
2023/02/18 04:30:05;;;;;;;5.32;1.60;;;;;;;7.70;100.00;93807.00;2122523;27;20066;-75
2023/02/18 04:31:06;;;;;;;2.45;1.67;;;;;;;7.49;100.00;93804.31;2121026;27;20029;-75
2023/02/18 04:32:07;;;;;;;2.97;1.90;;;;;;;7.38;100.00;93806.97;2119194;27;20058;-74
2023/02/18 04:33:09;;;;;;;3.38;1.80;;;;;;;7.50;100.00;93809.25;2120261;27;20035;-75
2023/02/18 04:34:11;;;;;;;1.67;1.50;;;;;;;7.67;100.00;93809.66;2121853;27;20033;-75
2023/02/18 04:35:13;;;;;;;1.88;1.50;;;;;;;7.71;100.00;93811.16;2118612;27;20031;-76
2023/02/18 04:36:14;;;;;;;2.17;1.30;;;;;;;7.71;100.00;93807.75;2120866;27;20027;-76
2023/02/18 04:37:14;;;;;;;2.13;1.88;;;;;;;7.76;100.00;93807.38;2113548;27;20137;-75
2023/02/18 04:38:17;;;;;;;3.60;2.20;;;;;;;7.68;100.00;93808.50;2105714;28;20024;-74
2023/02/18 04:39:18;;;;;;;2.00;1.73;;;;;;;7.94;100.00;93802.78;2115471;27;20455;-75
2023/02/18 04:40:19;;;;;;;2.53;1.70;;;;;;;7.82;100.00;93803.97;2123123;27;20052;-75
2023/02/18 04:41:20;;;;;;;1.55;1.45;;;;;;;7.69;100.00;93794.84;2119153;27;20065;-74
2023/02/18 04:42:21;;;;;;;4.63;1.67;;;;;;;7.65;100.00;93799.38;2124257;27;20524;-75
2023/02/18 04:43:22;;;;;;;2.85;1.95;;;;;;;7.68;100.00;93803.97;2121483;27;20096;-75
2023/02/18 04:44:23;;;;;;;2.17;1.60;;;;;;;7.67;100.00;93796.34;2116474;27;20429;-75
2023/02/18 04:45:25;;;;;;;2.78;1.70;;;;;;;7.69;100.00;93794.06;2111817;27;20056;-75
2023/02/18 04:46:29;;;;;;;3.03;1.60;;;;;;;7.61;100.00;93803.94;2108200;27;20032;-75
2023/02/18 04:47:30;;;;;;;4.03;1.77;;;;;;;7.66;100.00;93790.25;2101681;28;20445;-76
2023/02/18 04:48:31;;;;;;;3.45;1.70;;;;;;;7.55;100.00;93784.94;2102676;28;20024;-75
2023/02/18 04:49:33;;;;;;;2.53;1.83;;;;;;;7.42;100.00;93783.00;2120449;27;20023;-76
2023/02/18 04:50:34;;;;;;;2.75;1.92;;;;;;;7.59;100.00;93790.25;2123051;27;20043;-76
2023/02/18 04:51:36;;;;;;;2.53;1.92;;;;;;;7.73;100.00;93786.84;2097319;28;20033;-78
2023/02/18 04:52:37;;;;;;;3.65;1.80;;;;;;;7.73;100.00;93781.53;2097714;28;20024;-75
2023/02/18 04:53:38;;;;;;;2.45;1.75;;;;;;;7.73;100.00;93782.28;2110920;27;20548;-75
2023/02/18 04:54:40;;;;;;;2.25;2.05;;;;;;;7.78;100.00;93787.22;2118031;27;20034;-75
2023/02/18 04:55:42;;;;;;;3.97;1.80;;;;;;;7.68;100.00;93777.34;2101355;28;20036;-76
2023/02/18 04:57:15;;;;;;;2.75;1.95;;;;;;;7.57;100.00;93782.66;2089718;28;20024;-75
2023/02/18 04:58:22;;;;;;;2.08;1.63;;;;;;;7.47;100.00;93772.03;2108172;27;20114;-76
2023/02/18 04:59:24;;;;;;;2.47;1.90;;;;;;;7.62;100.00;93778.09;2105395;28;20039;-75
2023/02/18 05:00:27;;;;;;;2.40;2.00;;;;;;;7.48;100.00;93771.63;2105106;28;20028;-76
2023/02/18 05:01:28;;;;;;;2.30;1.80;;;;;;;7.52;100.00;93775.06;2102620;28;20129;-75
2023/02/18 05:02:32;;;;;;;3.33;1.90;;;;;;;7.44;100.00;93778.09;2105552;28;20063;-75
2023/02/18 05:03:41;;;;;;;3.25;2.03;;;;;;;7.44;100.00;93775.44;2108742;27;20037;-76
2023/02/18 05:04:42;;;;;;;3.65;1.98;;;;;;;7.47;100.00;93778.09;2110683;27;20031;-76
2023/02/18 05:05:43;;;;;;;3.33;2.25;;;;;;;7.41;100.00;93778.84;2110580;27;20032;-76
2023/02/18 05:06:44;;;;;;;2.20;1.95;;;;;;;7.39;100.00;93776.56;2105112;28;20631;-74
2023/02/18 05:07:48;;;;;;;4.95;2.00;;;;;;;7.45;100.00;93774.28;2103751;27;20034;-75
2023/02/18 05:08:52;;;;;;;1.98;1.70;;;;;;;7.39;100.00;93778.47;2100573;28;20575;-74
2023/02/18 05:09:54;;;;;;;3.03;2.28;;;;;;;7.47;100.00;93783.41;2111258;27;20269;-75
2023/02/18 05:10:55;;;;;;;3.28;2.10;;;;;;;7.57;100.00;93785.31;2105358;28;20753;-74
2023/02/18 05:11:55;;;;;;;2.72;2.13;;;;;;;7.44;100.00;93792.16;2098756;28;20425;-74
2023/02/18 05:12:57;;;;;;;2.30;1.80;;;;;;;7.62;100.00;93788.75;2102918;28;20468;-76
2023/02/18 05:13:58;;;;;;;4.57;1.80;;;;;;;7.78;100.00;93791.78;2103149;28;20063;-75
2023/02/18 05:14:59;;;;;;;2.33;1.85;;;;;;;7.73;100.00;93787.59;2106060;27;20031;-75